Time;durP1;ratioP1;P1;durP2;ratioP2;P2;SDS_P1;SDS_P2;PMS_P1;PMS_P2;Temp;Humidity;BMP_temperature;BMP_pressure;BME280_temperature;BME280_humidity;BME280_pressure;Samples;Min_cycle;Max_cycle;Signal;HPM_P1;HPM_P2
2023/08/11 00:00:53;;;;;;;10.13;2.30;;;16.40;99.90;;;;;;5000868;28;20053;-74
2023/08/11 00:03:40;;;;;;;13.13;2.67;;;16.40;99.90;;;;;;4967099;28;20042;-73
2023/08/11 00:06:26;;;;;;;13.48;3.30;;;16.40;99.90;;;;;;4992052;28;20461;-74
2023/08/11 00:09:13;;;;;;;12.60;2.70;;;16.40;99.90;;;;;;4963645;28;20041;-73
2023/08/11 00:11:59;;;;;;;11.43;2.25;;;16.40;99.90;;;;;;4998592;28;20088;-74
2023/08/11 00:14:48;;;;;;;8.45;3.20;;;16.40;99.90;;;;;;4998585;28;20083;-74
2023/08/11 00:17:34;;;;;;;12.82;2.47;;;16.40;99.90;;;;;;4972600;28;20092;-71
2023/08/11 00:20:20;;;;;;;10.80;2.63;;;16.40;99.90;;;;;;4964971;28;20046;-71
2023/08/11 00:23:06;;;;;;;11.75;2.53;;;16.40;99.90;;;;;;4970293;28;20077;-71
2023/08/11 00:25:52;;;;;;;14.88;2.60;;;16.40;99.90;;;;;;4984470;28;20041;-71
2023/08/11 00:28:38;;;;;;;14.80;3.42;;;16.40;99.90;;;;;;4990401;28;20153;-71
2023/08/11 00:31:24;;;;;;;13.13;2.67;;;16.40;99.90;;;;;;4996542;28;20033;-71
2023/08/11 00:34:10;;;;;;;18.70;3.00;;;16.40;99.90;;;;;;4969476;28;20083;-70
2023/08/11 00:36:56;;;;;;;15.63;2.63;;;16.40;99.90;;;;;;4985102;28;20462;-73
2023/08/11 00:39:42;;;;;;;10.10;2.20;;;16.40;99.90;;;;;;4998899;28;20065;-74
2023/08/11 00:42:28;;;;;;;9.73;2.58;;;16.40;99.90;;;;;;4980490;28;20787;-74
2023/08/11 00:45:14;;;;;;;11.77;2.70;;;16.40;99.90;;;;;;4997688;28;20045;-74
2023/08/11 00:48:00;;;;;;;11.98;2.70;;;16.40;99.90;;;;;;4971427;28;20093;-74
2023/08/11 00:50:46;;;;;;;14.07;2.60;;;16.40;99.90;;;;;;4965696;28;20426;-73
2023/08/11 00:53:33;;;;;;;11.25;2.22;;;16.40;99.90;;;;;;4966670;28;20038;-74
2023/08/11 00:56:19;;;;;;;8.82;2.10;;;16.40;99.90;;;;;;4974488;28;20042;-74
2023/08/11 00:59:05;;;;;;;12.23;2.63;;;16.50;99.90;;;;;;4984416;28;20122;-74
2023/08/11 01:01:51;;;;;;;11.40;2.40;;;16.50;99.90;;;;;;4969644;28;20054;-73
2023/08/11 01:04:37;;;;;;;9.75;2.38;;;16.50;99.90;;;;;;4993594;28;20049;-74
2023/08/11 01:07:56;;;;;;;10.77;2.30;;;16.50;99.90;;;;;;4954943;28;20046;-74
2023/08/11 01:10:46;;;;;;;9.68;2.40;;;16.50;99.90;;;;;;4967174;28;20108;-73
2023/08/11 01:13:34;;;;;;;7.28;2.63;;;16.40;99.90;;;;;;4980183;28;20497;-74
2023/08/11 01:16:20;;;;;;;;;;;16.50;99.90;;;;;;4962117;28;20366;-74
2023/08/11 01:19:06;;;;;;;11.20;2.85;;;16.50;99.90;;;;;;4998349;28;19929;-73
2023/08/11 01:21:53;;;;;;;13.63;2.67;;;16.50;99.90;;;;;;4985784;28;20044;-74
2023/08/11 01:24:39;;;;;;;12.05;3.45;;;16.50;99.90;;;;;;4974070;28;20044;-74
2023/08/11 01:27:25;;;;;;;14.70;2.67;;;16.50;99.90;;;;;;4984520;28;20073;-73
2023/08/11 01:30:12;;;;;;;10.07;2.20;;;16.50;99.90;;;;;;4965313;28;20371;-74
2023/08/11 01:32:58;;;;;;;9.00;2.55;;;16.40;99.90;;;;;;4983973;28;20046;-74
2023/08/11 01:35:44;;;;;;;8.38;2.30;;;16.40;99.90;;;;;;4986597;28;20042;-74
2023/08/11 01:38:30;;;;;;;9.85;1.98;;;16.40;99.90;;;;;;4971710;28;20057;-73
2023/08/11 01:41:16;;;;;;;10.98;2.08;;;16.40;99.90;;;;;;4998276;28;20078;-74
2023/08/11 01:44:02;;;;;;;12.00;1.83;;;16.40;99.90;;;;;;4997485;28;20041;-74
2023/08/11 01:46:49;;;;;;;7.97;2.28;;;16.40;99.90;;;;;;4959806;28;20116;-73
2023/08/11 01:49:35;;;;;;;10.75;2.40;;;16.40;99.90;;;;;;4986553;28;20502;-73
2023/08/11 01:52:21;;;;;;;10.23;2.50;;;16.40;99.90;;;;;;4983021;28;20045;-74
2023/08/11 01:55:09;;;;;;;8.05;2.15;;;16.50;99.90;;;;;;4985323;28;20042;-74
2023/08/11 01:57:55;;;;;;;14.77;2.67;;;16.50;99.90;;;;;;4971481;28;20378;-74
2023/08/11 02:00:41;;;;;;;10.18;2.50;;;16.50;99.90;;;;;;4966608;28;20043;-74
2023/08/11 02:03:27;;;;;;;11.77;2.67;;;16.50;99.90;;;;;;4968906;28;20697;-74
2023/08/11 02:06:14;;;;;;;9.55;2.80;;;16.50;99.90;;;;;;4997632;28;20129;-74
2023/08/11 02:09:00;;;;;;;14.70;2.42;;;16.60;99.90;;;;;;4993091;28;20050;-74
2023/08/11 02:11:47;;;;;;;11.48;2.20;;;16.60;99.90;;;;;;4972952;28;20355;-74
2023/08/11 02:14:33;;;;;;;13.68;2.58;;;16.60;99.90;;;;;;4975630;28;20494;-74
2023/08/11 02:17:19;;;;;;;9.45;2.65;;;16.60;99.90;;;;;;4996901;28;20104;-74
2023/08/11 02:20:21;;;;;;;9.10;1.83;;;16.60;99.90;;;;;;4983559;28;20056;-74
2023/08/11 02:23:08;;;;;;;6.30;2.13;;;16.60;99.90;;;;;;4967042;28;20044;-74
2023/08/11 02:25:54;;;;;;;9.57;2.10;;;16.60;99.90;;;;;;4997608;28;20108;-74
2023/08/11 02:28:40;;;;;;;14.30;2.72;;;16.70;99.90;;;;;;4996641;28;20141;-73
2023/08/11 02:31:26;;;;;;;12.23;2.72;;;16.70;99.90;;;;;;4969215;28;20038;-74
2023/08/11 02:34:12;;;;;;;11.68;1.95;;;16.70;99.90;;;;;;4983524;28;20125;-74
2023/08/11 02:36:58;;;;;;;13.43;2.10;;;16.70;99.90;;;;;;5011912;28;20034;-74
2023/08/11 02:39:44;;;;;;;8.50;2.10;;;16.70;99.90;;;;;;4998472;28;20050;-74
2023/08/11 02:42:30;;;;;;;8.18;2.50;;;16.70;99.90;;;;;;4963311;28;20517;-74
2023/08/11 02:45:16;;;;;;;10.45;2.70;;;16.70;99.90;;;;;;4983754;28;20371;-73
2023/08/11 02:48:02;;;;;;;10.30;2.63;;;16.70;99.90;;;;;;4997726;28;20046;-74
2023/08/11 02:50:48;;;;;;;10.55;1.88;;;16.70;99.90;;;;;;5001970;28;20034;-73
2023/08/11 02:53:35;;;;;;;10.38;2.70;;;16.70;99.90;;;;;;4986737;28;20042;-74
2023/08/11 02:56:21;;;;;;;10.43;2.58;;;16.70;99.90;;;;;;4986224;28;20045;-74
2023/08/11 02:59:07;;;;;;;16.08;2.47;;;16.70;99.90;;;;;;4967704;28;20069;-73
2023/08/11 03:01:52;;;;;;;11.75;2.63;;;16.70;99.90;;;;;;4983918;28;20047;-74
2023/08/11 03:04:39;;;;;;;12.48;2.70;;;16.70;99.90;;;;;;5013015;28;20088;-73
2023/08/11 03:07:25;;;;;;;16.60;2.85;;;16.70;99.90;;;;;;5001079;28;20045;-74
2023/08/11 03:10:11;;;;;;;15.65;2.30;;;16.70;99.90;;;;;;4995331;28;20169;-74
2023/08/11 03:12:57;;;;;;;11.98;2.40;;;16.70;99.90;;;;;;4974999;28;20535;-74
2023/08/11 03:15:43;;;;;;;14.07;2.30;;;16.70;99.90;;;;;;4984883;28;20073;-74
2023/08/11 03:18:30;;;;;;;11.20;2.20;;;16.70;99.90;;;;;;4972780;28;20041;-74
2023/08/11 03:21:16;;;;;;;12.25;2.63;;;16.70;99.90;;;;;;5013649;28;20129;-73
2023/08/11 03:24:02;;;;;;;12.30;2.70;;;16.70;99.90;;;;;;4963805;28;20135;-74
2023/08/11 03:26:48;;;;;;;11.95;2.63;;;16.70;99.90;;;;;;4986328;28;20041;-73
2023/08/11 03:29:34;;;;;;;8.07;2.55;;;16.60;99.90;;;;;;4991427;28;20053;-74
2023/08/11 03:32:20;;;;;;;6.25;2.40;;;16.70;99.90;;;;;;4972713;28;20041;-73
2023/08/11 03:35:06;;;;;;;8.25;2.08;;;16.60;99.90;;;;;;4981264;28;20045;-73
2023/08/11 03:37:52;;;;;;;8.85;2.50;;;16.60;99.90;;;;;;4984607;28;20042;-74
2023/08/11 03:40:38;;;;;;;8.95;2.58;;;16.60;99.90;;;;;;4985781;28;20081;-74
2023/08/11 03:43:24;;;;;;;7.47;2.53;;;16.70;99.90;;;;;;5000706;28;20080;-74
2023/08/11 03:46:10;;;;;;;4.70;1.67;;;16.60;99.90;;;;;;4999445;28;20100;-74
2023/08/11 03:48:57;;;;;;;8.73;2.20;;;16.60;99.90;;;;;;4995409;28;20065;-74
2023/08/11 03:51:43;;;;;;;8.10;2.67;;;16.60;99.90;;;;;;4973757;28;20042;-74
2023/08/11 03:54:29;;;;;;;9.82;2.00;;;16.60;99.90;;;;;;4965429;28;20418;-74
2023/08/11 03:57:14;;;;;;;13.10;2.53;;;16.60;99.90;;;;;;4985138;28;20034;-74
2023/08/11 04:00:01;;;;;;;8.38;2.33;;;16.70;99.90;;;;;;4973200;28;20038;-74
2023/08/11 04:02:48;;;;;;;11.45;2.35;;;16.70;99.90;;;;;;4995542;28;20042;-74
2023/08/11 04:05:34;;;;;;;11.73;2.20;;;16.70;99.90;;;;;;4954739;28;20050;-74
2023/08/11 04:08:20;;;;;;;6.70;2.15;;;16.70;99.90;;;;;;4993470;28;20074;-74
2023/08/11 04:11:07;;;;;;;8.57;1.83;;;16.70;99.90;;;;;;4983575;28;20057;-75
2023/08/11 04:13:54;;;;;;;6.18;2.17;;;16.70;99.90;;;;;;5003310;28;20041;-74
2023/08/11 04:16:40;;;;;;;13.32;2.58;;;16.70;99.90;;;;;;5001613;28;20038;-75
2023/08/11 04:19:26;;;;;;;6.85;2.08;;;16.70;99.90;;;;;;4999870;28;20038;-74
2023/08/11 04:22:11;;;;;;;7.57;2.90;;;16.70;99.90;;;;;;4985510;28;20050;-74
2023/08/11 04:24:57;;;;;;;10.85;3.08;;;16.70;99.90;;;;;;4954077;28;20078;-74
2023/08/11 04:27:43;;;;;;;9.63;2.33;;;16.70;99.90;;;;;;4989912;28;20069;-74
2023/08/11 04:30:29;;;;;;;9.45;2.30;;;16.70;99.90;;;;;;4996771;28;20124;-74
2023/08/11 04:33:15;;;;;;;8.98;1.83;;;16.80;99.90;;;;;;4999855;28;20239;-74
2023/08/11 04:36:04;;;;;;;6.35;2.63;;;16.80;99.90;;;;;;4998064;28;20046;-74
2023/08/11 04:38:50;;;;;;;8.20;2.83;;;16.80;99.90;;;;;;4969654;28;20137;-74
2023/08/11 04:41:37;;;;;;;12.13;2.80;;;16.80;99.90;;;;;;4992456;28;20092;-74
2023/08/11 04:44:23;;;;;;;4.60;1.92;;;16.80;99.90;;;;;;4972494;28;20045;-74
2023/08/11 04:47:09;;;;;;;10.23;2.50;;;16.80;99.90;;;;;;4976678;28;20042;-74
2023/08/11 04:49:55;;;;;;;14.50;2.83;;;16.80;99.90;;;;;;4991672;28;20064;-74
2023/08/11 04:52:41;;;;;;;7.65;2.28;;;16.80;99.90;;;;;;4999558;28;20053;-74
2023/08/11 04:55:30;;;;;;;7.68;1.98;;;16.80;99.90;;;;;;4998901;28;20488;-74
2023/08/11 04:58:16;;;;;;;7.10;2.13;;;16.80;99.90;;;;;;4986361;28;20041;-74
2023/08/11 05:01:03;;;;;;;4.63;1.95;;;16.80;99.90;;;;;;4971202;28;20049;-74
2023/08/11 05:03:50;;;;;;;8.13;2.35;;;16.80;99.90;;;;;;4996203;28;20041;-74
2023/08/11 05:06:36;;;;;;;7.85;1.90;;;16.80;99.90;;;;;;4987671;28;20049;-74
2023/08/11 05:09:22;;;;;;;7.13;2.38;;;16.80;99.90;;;;;;4991032;28;20060;-74
2023/08/11 05:12:10;;;;;;;7.97;2.33;;;16.80;99.90;;;;;;4983082;28;20037;-74
2023/08/11 05:14:56;;;;;;;;;;;16.80;99.90;;;;;;4969714;28;20034;-74
2023/08/11 05:17:42;;;;;;;8.77;2.10;;;16.80;99.90;;;;;;4985690;28;19928;-74
2023/08/11 05:20:28;;;;;;;6.90;2.17;;;16.80;99.90;;;;;;4971751;28;20072;-74
2023/08/11 05:23:13;;;;;;;6.30;2.10;;;16.80;99.90;;;;;;4984370;28;20077;-75
2023/08/11 05:25:59;;;;;;;6.35;2.30;;;16.90;99.90;;;;;;4994619;28;20137;-74
2023/08/11 05:28:45;;;;;;;9.48;2.50;;;16.90;99.90;;;;;;4979083;28;20053;-74
2023/08/11 05:31:32;;;;;;;8.02;2.25;;;16.90;99.90;;;;;;4964951;28;20066;-74
2023/08/11 05:34:18;;;;;;;5.85;2.10;;;16.90;99.90;;;;;;4998600;28;20112;-75
2023/08/11 05:37:05;;;;;;;10.35;2.08;;;16.90;99.90;;;;;;5011315;28;20053;-73
2023/08/11 05:39:54;;;;;;;6.35;2.42;;;16.90;99.90;;;;;;4975335;28;20516;-74
2023/08/11 05:42:40;;;;;;;8.00;2.00;;;17.00;99.90;;;;;;4999452;28;20088;-73
2023/08/11 05:45:27;;;;;;;9.27;2.55;;;17.00;99.90;;;;;;4999731;28;20033;-75
2023/08/11 05:48:13;;;;;;;5.22;2.00;;;17.00;99.90;;;;;;5008667;28;20072;-74
2023/08/11 05:50:59;;;;;;;5.97;2.10;;;17.00;99.90;;;;;;4994740;28;20092;-73
2023/08/11 05:53:46;;;;;;;5.30;2.28;;;17.10;99.90;;;;;;4986214;28;20378;-73
2023/08/11 05:56:32;;;;;;;11.43;2.05;;;17.10;99.90;;;;;;4997543;28;20295;-74
2023/08/11 05:59:22;;;;;;;7.28;2.05;;;17.10;99.90;;;;;;4998551;28;20507;-74
2023/08/11 06:02:08;;;;;;;5.75;1.80;;;17.10;99.90;;;;;;4984406;28;20034;-74
2023/08/11 06:04:54;;;;;;;6.80;1.73;;;17.10;99.90;;;;;;4997278;28;20045;-74
2023/08/11 06:07:40;;;;;;;11.40;2.38;;;17.20;99.90;;;;;;4985260;28;20133;-74
2023/08/11 06:10:26;;;;;;;7.50;1.90;;;17.20;99.90;;;;;;4998366;28;20096;-74
2023/08/11 06:13:12;;;;;;;7.07;2.20;;;17.20;99.90;;;;;;4970530;28;20057;-73
2023/08/11 06:16:00;;;;;;;7.28;2.17;;;17.20;99.90;;;;;;4983525;28;20060;-74
2023/08/11 06:18:46;;;;;;;9.30;2.08;;;17.20;99.90;;;;;;4987201;28;20085;-74
2023/08/11 06:21:32;;;;;;;6.60;1.88;;;17.20;99.90;;;;;;4987916;28;20077;-74
2023/08/11 06:24:17;;;;;;;10.35;2.20;;;17.20;99.90;;;;;;4973186;28;20085;-74
2023/08/11 06:27:04;;;;;;;8.80;2.00;;;17.20;99.90;;;;;;5002851;28;20042;-74
2023/08/11 06:29:49;;;;;;;6.38;2.15;;;17.30;99.90;;;;;;4976739;28;20378;-74
2023/08/11 06:32:37;;;;;;;5.65;1.80;;;17.30;99.90;;;;;;4995637;28;20096;-74
2023/08/11 06:35:24;;;;;;;6.13;2.08;;;17.30;99.90;;;;;;4978770;28;20077;-74
2023/08/11 06:38:10;;;;;;;5.38;2.10;;;17.30;99.90;;;;;;4992555;28;20049;-74
2023/08/11 06:40:56;;;;;;;8.68;2.78;;;17.40;99.90;;;;;;4956637;28;20053;-74
2023/08/11 06:43:42;;;;;;;6.05;2.30;;;17.40;99.90;;;;;;4983116;28;20050;-74
2023/08/11 06:46:28;;;;;;;4.82;2.20;;;17.40;99.90;;;;;;4995543;28;20038;-74
2023/08/11 06:49:14;;;;;;;12.23;2.47;;;17.50;99.90;;;;;;4982833;28;20046;-74
2023/08/11 06:52:00;;;;;;;7.60;2.42;;;17.60;99.90;;;;;;4968035;28;20466;-74
2023/08/11 06:54:45;;;;;;;12.77;3.58;;;17.60;99.90;;;;;;4980014;28;20030;-74
2023/08/11 06:57:31;;;;;;;11.02;2.55;;;17.70;99.90;;;;;;4977011;28;20038;-74
2023/08/11 07:00:17;;;;;;;13.18;2.60;;;17.70;99.90;;;;;;4962256;28;20039;-74
2023/08/11 07:03:04;;;;;;;9.25;2.90;;;17.80;99.90;;;;;;4977960;28;20059;-74
2023/08/11 07:05:51;;;;;;;10.77;3.10;;;17.90;99.90;;;;;;4976751;28;20035;-74
2023/08/11 07:08:38;;;;;;;11.15;2.63;;;18.00;99.90;;;;;;4995324;28;20756;-74
2023/08/11 07:11:24;;;;;;;8.38;2.75;;;18.10;99.90;;;;;;4980857;28;20035;-74
2023/08/11 07:14:10;;;;;;;8.35;2.92;;;18.20;99.90;;;;;;4995398;28;20042;-75
2023/08/11 07:16:56;;;;;;;15.20;3.92;;;18.20;99.90;;;;;;4976189;28;20454;-74
2023/08/11 07:19:42;;;;;;;10.25;3.35;;;18.30;99.90;;;;;;4967866;28;20133;-73
2023/08/11 07:22:28;;;;;;;15.10;3.35;;;18.40;99.90;;;;;;4980664;28;20042;-75
2023/08/11 07:25:14;;;;;;;13.82;4.00;;;18.50;99.90;;;;;;4975721;28;20038;-74
2023/08/11 07:28:00;;;;;;;12.40;4.78;;;18.60;99.90;;;;;;4982325;28;20107;-75
2023/08/11 07:30:46;;;;;;;14.55;4.03;;;18.60;99.90;;;;;;4967469;28;20043;-75
2023/08/11 07:33:32;;;;;;;10.15;3.20;;;18.70;99.90;;;;;;4970314;28;20062;-75
2023/08/11 07:36:19;;;;;;;9.18;2.97;;;18.70;99.90;;;;;;4983654;28;20100;-75
2023/08/11 07:39:08;;;;;;;13.05;3.33;;;18.80;99.90;;;;;;4962854;28;20050;-76
2023/08/11 07:41:54;;;;;;;13.80;3.92;;;18.80;99.90;;;;;;4980796;28;20046;-75
2023/08/11 07:44:40;;;;;;;10.95;3.75;;;18.90;99.90;;;;;;4970088;28;20045;-75
2023/08/11 07:47:26;;;;;;;10.52;3.75;;;19.10;99.90;;;;;;4992594;28;20492;-76
2023/08/11 07:50:12;;;;;;;11.40;3.85;;;19.10;99.90;;;;;;4976109;28;20078;-75
2023/08/11 07:52:58;;;;;;;12.10;4.20;;;19.20;99.90;;;;;;4966848;28;20038;-75
2023/08/11 07:55:45;;;;;;;15.00;5.88;;;19.40;99.90;;;;;;4993944;28;20034;-74
2023/08/11 07:58:31;;;;;;;15.38;6.75;;;19.50;99.90;;;;;;4995615;28;20042;-75
2023/08/11 08:01:18;;;;;;;18.77;7.60;;;19.50;99.90;;;;;;4980256;28;20070;-75
2023/08/11 08:04:04;;;;;;;16.42;7.25;;;19.50;99.90;;;;;;4984588;28;20049;-75
2023/08/11 08:06:50;;;;;;;15.52;6.88;;;19.60;99.90;;;;;;4980621;28;20542;-76
2023/08/11 08:09:38;;;;;;;17.17;6.22;;;19.70;99.90;;;;;;4975851;28;20134;-74
2023/08/11 08:12:24;;;;;;;12.25;5.47;;;19.80;99.90;;;;;;4968455;28;20045;-74
2023/08/11 08:15:10;;;;;;;11.32;5.07;;;19.80;99.90;;;;;;4982421;28;20672;-75
2023/08/11 08:17:58;;;;;;;10.52;4.70;;;19.90;99.90;;;;;;4971389;28;20038;-75
2023/08/11 08:20:44;;;;;;;11.43;4.17;;;19.90;99.90;;;;;;4980471;28;20057;-74
2023/08/11 08:23:29;;;;;;;12.38;3.90;;;19.90;99.90;;;;;;4992595;28;20050;-75
2023/08/11 08:26:16;;;;;;;10.68;4.28;;;19.90;99.90;;;;;;4949789;28;20057;-75
2023/08/11 08:29:03;;;;;;;10.27;3.88;;;20.00;99.90;;;;;;4976239;28;20077;-74
2023/08/11 08:31:49;;;;;;;9.38;3.50;;;20.10;99.90;;;;;;4979714;28;20034;-74
2023/08/11 08:34:37;;;;;;;5.95;3.13;;;20.20;99.90;;;;;;5009634;28;20045;-74
2023/08/11 08:37:24;;;;;;;3.65;2.20;;;20.30;99.90;;;;;;4997656;28;20458;-76
2023/08/11 08:40:12;;;;;;;2.97;2.25;;;20.40;99.90;;;;;;5011927;28;20528;-76
2023/08/11 08:42:58;;;;;;;3.85;2.10;;;20.40;99.90;;;;;;4998765;28;20049;-76
2023/08/11 08:45:47;;;;;;;4.75;2.00;;;20.60;99.90;;;;;;4974127;28;20037;-76
2023/08/11 08:48:43;;;;;;;5.35;2.33;;;20.60;99.90;;;;;;4997494;28;20486;-76
2023/08/11 08:51:30;;;;;;;7.88;2.60;;;20.70;99.90;;;;;;4983200;28;20048;-77
2023/08/11 08:54:16;;;;;;;3.90;2.10;;;20.70;99.90;;;;;;4967654;28;20049;-76
2023/08/11 08:57:03;;;;;;;6.35;2.13;;;20.80;99.90;;;;;;4993540;28;20050;-75
2023/08/11 08:59:50;;;;;;;4.55;2.10;;;20.90;99.90;;;;;;4986017;28;20045;-75
2023/08/11 09:02:38;;;;;;;4.95;1.92;;;20.90;99.90;;;;;;5008944;28;20034;-75
2023/08/11 09:05:27;;;;;;;3.90;2.17;;;21.00;99.90;;;;;;4952996;28;20089;-75
2023/08/11 09:08:14;;;;;;;4.97;2.53;;;21.10;99.90;;;;;;4988046;28;20072;-74
2023/08/11 09:11:00;;;;;;;4.05;2.17;;;21.10;99.90;;;;;;4998125;28;20088;-74
2023/08/11 09:13:46;;;;;;;5.72;2.00;;;21.10;99.90;;;;;;5000566;28;20064;-74
2023/08/11 09:16:39;;;;;;;6.20;2.45;;;21.20;99.90;;;;;;4983515;28;20486;-74
2023/08/11 09:19:25;;;;;;;3.50;1.83;;;21.20;99.90;;;;;;4970244;28;20128;-74
2023/08/11 09:22:11;;;;;;;7.07;2.30;;;21.40;99.90;;;;;;4986319;28;20052;-74
2023/08/11 09:24:57;;;;;;;3.78;2.22;;;21.30;99.90;;;;;;4980885;28;20461;-74
2023/08/11 09:27:43;;;;;;;4.00;2.03;;;21.20;99.90;;;;;;4994626;28;20120;-73
2023/08/11 09:30:31;;;;;;;3.58;2.35;;;21.20;99.90;;;;;;4980135;28;20046;-74
2023/08/11 09:33:18;;;;;;;4.82;2.25;;;21.20;99.90;;;;;;4987781;28;20046;-74
2023/08/11 09:36:04;;;;;;;4.25;2.20;;;21.30;99.90;;;;;;4965432;28;20340;-74
2023/08/11 09:38:50;;;;;;;3.72;2.33;;;21.50;99.90;;;;;;4970985;28;20577;-74
2023/08/11 09:41:43;;;;;;;5.10;2.80;;;21.50;99.90;;;;;;4974224;28;20046;-74
2023/08/11 09:44:31;;;;;;;3.33;1.90;;;21.50;99.90;;;;;;4960238;28;20100;-74
2023/08/11 09:47:16;;;;;;;5.18;2.00;;;21.60;99.90;;;;;;4990380;28;20038;-74
2023/08/11 09:50:03;;;;;;;4.25;2.03;;;21.80;99.90;;;;;;4978576;28;20046;-74
2023/08/11 09:52:49;;;;;;;2.38;1.80;;;21.70;99.90;;;;;;4992741;28;20434;-73
2023/08/11 09:55:36;;;;;;;3.85;2.10;;;21.90;99.90;;;;;;4992664;28;20117;-73
2023/08/11 09:58:25;;;;;;;1.85;1.20;;;21.90;99.90;;;;;;4977563;28;20050;-73
2023/08/11 10:01:12;;;;;;;3.55;1.85;;;22.00;99.90;;;;;;4976851;28;20073;-74
2023/08/11 10:04:01;;;;;;;3.87;1.80;;;22.00;99.90;;;;;;4975260;28;21008;-73
2023/08/11 10:06:52;;;;;;;3.38;1.52;;;22.00;99.90;;;;;;4990758;28;20265;-74
2023/08/11 10:09:38;;;;;;;4.40;1.60;;;22.10;99.90;;;;;;4964982;28;20034;-73
2023/08/11 10:12:24;;;;;;;4.05;1.40;;;22.30;99.90;;;;;;4974693;28;20128;-74
2023/08/11 10:15:11;;;;;;;2.35;1.30;;;22.50;99.90;;;;;;4984333;28;20038;-73
2023/08/11 10:17:57;;;;;;;2.97;1.38;;;22.70;99.60;;;;;;4966303;28;20383;-73
2023/08/11 10:20:42;;;;;;;2.88;1.50;;;22.80;99.90;;;;;;4978714;28;20050;-74
2023/08/11 10:23:28;;;;;;;2.63;1.60;;;22.70;98.60;;;;;;4958461;28;20046;-73
2023/08/11 10:26:14;;;;;;;3.72;1.70;;;22.80;99.40;;;;;;4978560;28;20038;-73
2023/08/11 10:29:00;;;;;;;2.10;1.27;;;22.80;99.20;;;;;;4951242;28;20054;-73
2023/08/11 10:31:54;;;;;;;3.63;1.83;;;22.80;99.70;;;;;;4960618;28;20064;-73
2023/08/11 10:34:40;;;;;;;4.60;1.50;;;23.10;99.90;;;;;;5000621;28;20041;-73
2023/08/11 10:37:31;;;;;;;3.65;1.63;;;23.10;99.40;;;;;;4994164;28;20550;-73
2023/08/11 10:40:17;;;;;;;4.95;1.67;;;23.20;99.40;;;;;;4981905;28;20064;-74
2023/08/11 10:43:04;;;;;;;4.05;1.50;;;23.20;99.20;;;;;;4996802;28;20100;-73
2023/08/11 10:45:50;;;;;;;4.18;1.27;;;23.40;98.30;;;;;;4992216;28;20089;-74
2023/08/11 10:48:36;;;;;;;2.25;1.35;;;23.50;98.80;;;;;;4977651;28;20041;-74
2023/08/11 10:51:35;;;;;;;2.97;1.23;;;23.40;98.50;;;;;;4977672;28;20038;-74
2023/08/11 10:54:25;;;;;;;5.45;1.38;;;23.60;98.40;;;;;;4992418;28;20042;-75
2023/08/11 10:57:12;;;;;;;4.57;1.40;;;23.60;98.10;;;;;;4988442;28;20034;-75
2023/08/11 10:59:58;;;;;;;4.27;1.30;;;23.60;98.10;;;;;;4996009;28;20042;-75
2023/08/11 11:02:45;;;;;;;2.45;1.40;;;23.60;97.70;;;;;;4987516;28;20289;-74
2023/08/11 11:05:31;;;;;;;3.90;1.40;;;23.70;97.90;;;;;;4999391;28;20156;-74
2023/08/11 11:08:17;;;;;;;2.30;1.35;;;23.90;98.00;;;;;;4987396;28;20061;-74
2023/08/11 11:11:03;;;;;;;2.22;1.50;;;23.90;97.60;;;;;;4986212;28;20046;-75
2023/08/11 11:13:51;;;;;;;1.75;1.25;;;23.90;98.30;;;;;;4977886;28;20045;-75
2023/08/11 11:16:37;;;;;;;2.63;1.30;;;24.00;98.80;;;;;;4985668;28;20096;-74
2023/08/11 11:19:23;;;;;;;3.17;1.63;;;24.20;98.20;;;;;;4999749;28;20056;-75
2023/08/11 11:22:09;;;;;;;3.55;1.10;;;24.20;97.60;;;;;;4973406;28;20374;-76
2023/08/11 11:25:04;;;;;;;2.67;1.10;;;24.30;96.60;;;;;;5001352;28;20042;-74
2023/08/11 11:27:50;;;;;;;5.00;1.00;;;24.30;97.60;;;;;;4983514;28;20041;-75
2023/08/11 11:30:36;;;;;;;4.63;1.17;;;24.40;96.90;;;;;;5000285;28;20049;-75
2023/08/11 11:33:22;;;;;;;1.95;1.20;;;24.60;96.70;;;;;;4986645;28;20054;-74
2023/08/11 11:36:08;;;;;;;4.45;0.98;;;24.50;96.70;;;;;;5014739;28;20042;-75
2023/08/11 11:38:55;;;;;;;2.65;1.02;;;24.60;97.10;;;;;;4985866;28;20042;-75
2023/08/11 11:41:41;;;;;;;1.50;1.00;;;24.70;96.10;;;;;;4980991;28;20046;-75
2023/08/11 11:44:27;;;;;;;1.48;1.10;;;24.90;95.80;;;;;;4970148;28;20041;-74
2023/08/11 11:47:13;;;;;;;2.80;1.10;;;24.90;96.20;;;;;;4985607;28;20050;-74
2023/08/11 11:49:59;;;;;;;1.70;1.10;;;24.90;96.10;;;;;;4979762;28;20046;-75
2023/08/11 11:52:47;;;;;;;2.78;1.02;;;25.00;95.50;;;;;;4986360;28;20057;-75
2023/08/11 11:55:45;;;;;;;2.42;1.23;;;25.10;96.30;;;;;;4984222;28;20048;-75
2023/08/11 11:58:34;;;;;;;2.22;0.98;;;25.20;95.90;;;;;;4969964;28;20085;-75
2023/08/11 12:01:28;;;;;;;1.38;1.10;;;25.20;96.50;;;;;;4967904;28;20037;-75
2023/08/11 12:04:14;;;;;;;2.72;1.15;;;25.40;96.50;;;;;;4976218;28;20500;-75
2023/08/11 12:07:01;;;;;;;5.53;1.10;;;25.50;96.10;;;;;;4998451;28;20045;-75
2023/08/11 12:09:51;;;;;;;3.03;1.25;;;25.50;95.20;;;;;;4992818;28;20048;-75
2023/08/11 12:12:37;;;;;;;2.88;1.20;;;25.50;95.40;;;;;;4998174;28;20042;-75
2023/08/11 12:15:24;;;;;;;4.00;1.40;;;25.60;94.70;;;;;;4998564;28;20113;-75
2023/08/11 12:18:11;;;;;;;2.20;1.05;;;25.70;95.10;;;;;;4971591;28;20038;-75
2023/08/11 12:20:58;;;;;;;3.00;0.82;;;25.70;95.20;;;;;;5001516;28;20516;-75
2023/08/11 12:23:44;;;;;;;1.50;0.90;;;25.80;95.30;;;;;;4970395;28;20045;-76
2023/08/11 12:26:31;;;;;;;3.45;1.10;;;25.90;94.40;;;;;;4970639;28;20034;-75
2023/08/11 12:29:17;;;;;;;2.60;1.20;;;26.00;95.70;;;;;;4984852;28;20041;-76
2023/08/11 12:32:03;;;;;;;1.77;0.88;;;26.20;95.00;;;;;;4983515;28;20520;-75
2023/08/11 12:34:49;;;;;;;1.77;1.17;;;26.20;94.90;;;;;;4972986;28;20048;-75
2023/08/11 12:37:37;;;;;;;;;;;26.20;94.40;;;;;;4996969;28;20062;-74
2023/08/11 12:40:24;;;;;;;3.50;1.05;;;26.30;95.10;;;;;;4998454;28;19974;-75
2023/08/11 12:43:10;;;;;;;1.90;1.20;;;26.40;94.50;;;;;;4984198;28;20072;-75
2023/08/11 12:45:57;;;;;;;3.70;0.95;;;26.50;93.60;;;;;;4998225;28;20117;-76
2023/08/11 12:48:43;;;;;;;1.40;0.90;;;26.60;93.60;;;;;;4986326;28;20046;-75
2023/08/11 12:51:29;;;;;;;2.90;1.20;;;26.70;93.10;;;;;;5020647;28;20043;-75
2023/08/11 12:54:15;;;;;;;1.77;0.90;;;26.80;93.70;;;;;;4995776;28;20338;-75
2023/08/11 12:57:01;;;;;;;3.85;1.05;;;26.90;93.50;;;;;;5006452;28;20042;-75
2023/08/11 12:59:47;;;;;;;3.15;1.00;;;27.10;93.40;;;;;;4999651;28;20504;-76
2023/08/11 13:02:33;;;;;;;3.25;0.90;;;27.20;92.70;;;;;;4997164;28;20053;-75
2023/08/11 13:05:19;;;;;;;2.47;1.20;;;27.20;92.00;;;;;;4966865;28;20041;-75
2023/08/11 13:08:05;;;;;;;2.17;1.00;;;27.10;92.70;;;;;;4984645;28;20551;-75
2023/08/11 13:10:51;;;;;;;6.43;1.40;;;27.30;92.60;;;;;;4983896;28;20072;-75
2023/08/11 13:13:37;;;;;;;2.70;1.38;;;27.40;91.60;;;;;;4994700;28;20038;-76
2023/08/11 13:16:23;;;;;;;4.55;1.40;;;27.30;90.40;;;;;;4983328;28;20522;-74
2023/08/11 13:19:09;;;;;;;4.43;1.35;;;27.50;91.60;;;;;;4992864;28;20076;-74
2023/08/11 13:21:59;;;;;;;3.55;1.23;;;27.50;90.80;;;;;;4979621;28;20467;-74
2023/08/11 13:24:45;;;;;;;3.03;1.33;;;27.60;91.00;;;;;;5000080;28;20429;-74
2023/08/11 13:27:31;;;;;;;2.95;1.33;;;27.70;90.10;;;;;;4984756;28;20377;-74
2023/08/11 13:30:19;;;;;;;5.43;1.20;;;27.80;90.60;;;;;;4982384;28;20133;-74
2023/08/11 13:33:05;;;;;;;8.73;1.88;;;27.90;90.70;;;;;;4970162;28;20387;-74
2023/08/11 13:35:51;;;;;;;2.78;1.27;;;28.00;90.00;;;;;;4963076;28;20462;-74
2023/08/11 13:38:37;;;;;;;3.53;1.30;;;28.00;90.00;;;;;;4990612;28;20046;-74
2023/08/11 13:41:23;;;;;;;6.93;1.40;;;28.20;90.30;;;;;;4977162;28;20494;-74
2023/08/11 13:44:12;;;;;;;4.22;1.70;;;28.40;90.60;;;;;;4992116;28;20097;-74
2023/08/11 13:46:59;;;;;;;3.38;1.75;;;28.40;89.40;;;;;;4946234;28;20045;-74
2023/08/11 13:49:45;;;;;;;4.82;1.35;;;28.50;89.60;;;;;;4990071;28;20056;-74
2023/08/11 13:52:31;;;;;;;6.40;1.50;;;28.70;90.00;;;;;;4972260;28;20415;-74
2023/08/11 13:55:17;;;;;;;3.03;1.50;;;28.80;89.10;;;;;;4975498;28;20050;-73
2023/08/11 13:58:03;;;;;;;6.07;1.60;;;28.80;89.70;;;;;;4987874;28;20039;-73
2023/08/11 14:00:49;;;;;;;5.20;1.50;;;29.10;87.10;;;;;;4989070;28;20360;-73
2023/08/11 14:03:35;;;;;;;2.20;1.20;;;28.90;86.20;;;;;;4989674;28;20831;-73
2023/08/11 14:06:21;;;;;;;6.43;1.40;;;29.40;86.70;;;;;;4970822;28;20193;-73
2023/08/11 14:09:07;;;;;;;5.03;1.50;;;29.60;85.50;;;;;;4989390;28;20128;-73
2023/08/11 14:11:53;;;;;;;3.28;1.50;;;29.80;84.50;;;;;;4973956;28;20049;-73
2023/08/11 14:14:39;;;;;;;7.20;1.55;;;30.00;84.30;;;;;;4971698;28;20077;-73
2023/08/11 14:17:25;;;;;;;3.25;1.17;;;30.50;83.40;;;;;;4972748;28;20064;-73
2023/08/11 14:20:11;;;;;;;5.93;1.52;;;30.50;84.10;;;;;;4982670;28;20053;-73
2023/08/11 14:22:58;;;;;;;5.60;1.73;;;30.50;82.70;;;;;;4968424;28;20049;-73
2023/08/11 14:25:46;;;;;;;3.95;1.80;;;30.20;84.10;;;;;;4962125;28;20042;-73